Time;durP1;ratioP1;P1;durP2;ratioP2;P2;SDS_P1;SDS_P2;PMS_P1;PMS_P2;Temp;Humidity;BMP_temperature;BMP_pressure;BME280_temperature;BME280_humidity;BME280_pressure;Samples;Min_cycle;Max_cycle;Signal;HPM_P1;HPM_P2
2021/06/12 00:00:30;;;;;;;11.28;7.45;;;;;;;19.00;61.65;100526.40;1610818;88;20972;-71
2021/06/12 00:02:54;;;;;;;9.38;6.58;;;;;;;19.02;61.55;100527.02;1609766;88;21519;-71
2021/06/12 00:05:20;;;;;;;7.92;6.03;;;;;;;19.03;61.46;100527.33;1610717;88;21070;-70
2021/06/12 00:07:46;;;;;;;8.90;5.87;;;;;;;19.04;61.37;100524.91;1610804;87;21034;-70
2021/06/12 00:10:16;;;;;;;9.20;5.67;;;;;;;19.05;61.27;100518.47;1614320;88;21619;-71
2021/06/12 00:12:42;;;;;;;10.23;5.17;;;;;;;19.05;61.17;100511.70;1613528;88;21051;-71
2021/06/12 00:15:10;;;;;;;10.32;6.55;;;;;;;19.07;61.10;100506.89;1613851;88;21051;-71
2021/06/12 00:17:36;;;;;;;14.85;8.75;;;;;;;19.10;61.00;100505.13;1614344;88;21571;-71
2021/06/12 00:20:06;;;;;;;15.58;9.10;;;;;;;19.10;60.90;100507.82;1605568;88;21029;-70
2021/06/12 00:22:32;;;;;;;13.58;8.70;;;;;;;19.11;60.84;100508.10;1615075;88;21145;-70
2021/06/12 00:24:58;;;;;;;17.62;9.10;;;;;;;19.11;60.76;100509.45;1596957;88;21036;-70
2021/06/12 00:27:24;;;;;;;33.55;20.82;;;;;;;19.11;60.64;100506.75;1610640;88;21275;-70
2021/06/12 00:29:50;;;;;;;18.52;11.28;;;;;;;19.09;60.58;100506.16;1608068;88;21030;-71
2021/06/12 00:32:16;;;;;;;12.50;8.15;;;;;;;19.03;60.53;100503.00;1610745;88;21617;-71
2021/06/12 00:34:43;;;;;;;15.35;7.08;;;;;;;18.98;60.51;100497.94;1610720;88;21171;-70
2021/06/12 00:37:09;;;;;;;7.83;6.42;;;;;;;18.92;60.49;100494.27;1610431;88;21114;-71
2021/06/12 00:39:35;;;;;;;7.87;5.25;;;;;;;18.87;60.46;100491.38;1610680;88;21015;-71
2021/06/12 00:42:01;;;;;;;7.28;4.70;;;;;;;18.82;60.47;100496.64;1610599;88;21027;-71
2021/06/12 00:44:27;;;;;;;7.33;5.25;;;;;;;18.79;60.47;100497.06;1610319;88;21478;-70
2021/06/12 00:46:53;;;;;;;8.85;5.12;;;;;;;18.73;60.46;100495.25;1609982;89;21151;-70
2021/06/12 00:49:20;;;;;;;6.70;5.58;;;;;;;18.68;60.49;100500.50;1610703;89;21043;-70
2021/06/12 00:51:48;;;;;;;10.23;7.22;;;;;;;18.64;60.50;100496.59;1610745;89;21488;-71
2021/06/12 00:54:14;;;;;;;10.48;7.12;;;;;;;18.61;60.51;100499.73;1611915;89;21119;-70
2021/06/12 00:56:40;;;;;;;11.33;6.70;;;;;;;18.59;60.53;100497.75;1610468;89;21036;-70
2021/06/12 00:59:06;;;;;;;9.35;6.92;;;;;;;18.58;60.54;100496.12;1611252;89;21187;-71
2021/06/12 01:01:32;;;;;;;11.45;8.00;;;;;;;18.56;60.56;100498.20;1611308;89;21627;-71
2021/06/12 01:03:58;;;;;;;10.85;7.00;;;;;;;18.56;60.58;100499.55;1609640;89;21520;-70
2021/06/12 01:06:24;;;;;;;8.40;5.50;;;;;;;18.55;60.61;100500.58;1611343;89;21039;-71
2021/06/12 01:08:50;;;;;;;9.28;6.28;;;;;;;18.54;60.66;100501.66;1611604;89;21055;-71
2021/06/12 01:11:16;;;;;;;7.78;5.35;;;;;;;18.54;60.68;100501.66;1611338;89;21189;-71
2021/06/12 01:14:03;;;;;;;9.50;5.65;;;;;;;18.53;60.70;100505.39;1611277;89;20976;-71
2021/06/12 01:16:58;;;;;;;5.85;5.22;;;;;;;18.52;60.72;100504.56;1610864;89;21043;-71
2021/06/12 01:19:58;;;;;;;10.28;6.30;;;;;;;18.53;60.77;100502.69;1609582;89;21063;-71
2021/06/12 01:22:46;;;;;;;8.15;5.90;;;;;;;18.51;60.78;100502.09;1610465;89;21030;-71
2021/06/12 01:25:39;;;;;;;13.18;8.00;;;;;;;18.48;60.81;100501.44;1610622;88;21268;-71
2021/06/12 01:28:44;;;;;;;19.45;11.78;;;;;;;18.46;60.83;100495.95;1608776;89;21457;-71
2021/06/12 01:31:10;;;;;;;18.40;11.75;;;;;;;18.43;60.86;100496.40;1610813;87;21048;-71
2021/06/12 01:33:37;;;;;;;21.93;13.28;;;;;;;18.37;60.91;100494.03;1585157;89;21540;-71
2021/06/12 01:36:04;;;;;;;24.72;9.48;;;;;;;18.34;60.95;100487.72;1609774;89;21103;-71
2021/06/12 01:38:32;;;;;;;9.45;7.10;;;;;;;18.31;60.96;100484.11;1609676;89;21172;-71
2021/06/12 01:41:05;;;;;;;8.08;6.85;;;;;;;18.28;61.01;100482.38;1609619;89;21087;-71
2021/06/12 01:43:31;;;;;;;9.85;7.05;;;;;;;18.23;61.01;100480.83;1609772;89;21123;-71
2021/06/12 01:45:57;;;;;;;10.25;6.47;;;;;;;18.16;61.04;100480.87;1609542;88;21032;-71
2021/06/12 01:48:23;;;;;;;8.70;6.42;;;;;;;18.11;61.10;100479.89;1584761;89;21124;-71
2021/06/12 01:50:49;;;;;;;6.92;6.12;;;;;;;18.06;61.13;100478.34;1609805;89;21228;-71
2021/06/12 01:53:17;;;;;;;13.45;8.68;;;;;;;17.98;61.20;100475.38;1609687;89;21111;-71
2021/06/12 01:55:44;;;;;;;16.73;9.80;;;;;;;17.91;61.24;100482.67;1611430;88;21083;-71
2021/06/12 01:58:16;;;;;;;13.68;8.68;;;;;;;17.87;61.33;100476.08;1611393;89;21068;-71
2021/06/12 02:00:42;;;;;;;15.00;8.93;;;;;;;17.86;61.41;100475.77;1611839;89;21110;-70
2021/06/12 02:03:09;;;;;;;11.38;8.95;;;;;;;17.85;61.50;100470.05;1610188;89;21096;-70
2021/06/12 02:05:35;;;;;;;15.83;8.95;;;;;;;17.81;61.60;100472.88;1611933;89;21059;-70
2021/06/12 02:08:02;;;;;;;14.95;9.50;;;;;;;17.76;61.69;100476.75;1611647;89;21067;-70
2021/06/12 02:10:30;;;;;;;17.67;8.50;;;;;;;17.67;61.81;100472.62;1611397;89;21079;-70
2021/06/12 02:12:57;;;;;;;15.60;11.93;;;;;;;17.61;61.91;100466.23;1611804;89;21013;-70
2021/06/12 02:15:25;;;;;;;21.50;14.03;;;;;;;17.59;62.02;100462.10;1609705;88;21153;-69
2021/06/12 02:18:03;;;;;;;27.55;13.48;;;;;;;17.54;62.14;100468.61;1592067;89;21479;-69
2021/06/12 02:20:29;;;;;;;22.10;12.37;;;;;;;17.51;62.20;100465.00;1608485;89;21031;-69
2021/06/12 02:22:55;;;;;;;20.88;11.50;;;;;;;17.44;62.31;100460.47;1611537;89;21563;-69
2021/06/12 02:25:21;;;;;;;16.27;9.68;;;;;;;17.43;62.39;100460.66;1611135;88;21563;-69
2021/06/12 02:27:51;;;;;;;15.00;10.72;;;;;;;17.37;62.46;100456.96;1610887;89;21943;-70
2021/06/12 02:30:18;;;;;;;18.95;9.50;;;;;;;17.33;62.59;100460.28;1609704;88;21603;-70
2021/06/12 02:32:46;;;;;;;16.10;9.35;;;;;;;17.27;62.73;100455.75;1609725;88;21020;-70
2021/06/12 02:35:13;;;;;;;14.47;9.35;;;;;;;17.14;62.83;100453.91;1609761;88;21476;-70
2021/06/12 02:37:40;;;;;;;15.00;9.38;;;;;;;17.06;63.00;100448.76;1609675;88;21566;-70
2021/06/12 02:40:07;;;;;;;38.70;20.40;;;;;;;17.03;63.21;100451.05;1609724;88;21165;-70
2021/06/12 02:42:33;;;;;;;27.25;15.43;;;;;;;16.89;63.40;100442.97;1609501;89;21548;-69
2021/06/12 02:45:00;;;;;;;25.37;14.63;;;;;;;16.84;63.67;100448.69;1610124;88;21125;-70
2021/06/12 02:47:27;;;;;;;19.35;12.65;;;;;;;16.83;63.93;100444.33;1609771;89;21024;-70
2021/06/12 02:49:54;;;;;;;21.90;11.03;;;;;;;16.79;64.13;100436.34;1609630;89;21083;-70
2021/06/12 02:52:25;;;;;;;14.83;10.32;;;;;;;16.72;64.30;100444.44;1609671;89;21532;-70
2021/06/12 02:54:51;;;;;;;17.50;10.10;;;;;;;16.69;64.50;100442.17;1609598;88;21084;-69
2021/06/12 02:57:17;;;;;;;15.48;10.40;;;;;;;16.68;64.68;100439.67;1610126;88;21745;-70
2021/06/12 02:59:44;;;;;;;15.10;9.75;;;;;;;16.68;64.81;100445.06;1609946;88;21087;-70
2021/06/12 03:02:12;;;;;;;18.05;10.82;;;;;;;16.63;64.95;100445.70;1609054;88;21078;-70
2021/06/12 03:04:39;;;;;;;21.48;11.30;;;;;;;16.62;65.09;100443.20;1587193;89;21798;-70
2021/06/12 03:07:05;;;;;;;14.87;10.23;;;;;;;16.60;65.19;100445.30;1610428;88;21047;-70
2021/06/12 03:09:31;;;;;;;17.48;10.55;;;;;;;16.57;65.26;100445.71;1609613;89;21020;-70
2021/06/12 03:11:57;;;;;;;18.15;10.28;;;;;;;16.48;65.41;100445.88;1609861;88;21032;-70
2021/06/12 03:14:24;;;;;;;12.88;8.55;;;;;;;16.43;65.53;100444.31;1610275;89;21079;-70
2021/06/12 03:16:51;;;;;;;13.38;10.35;;;;;;;16.40;65.64;100444.73;1610651;89;21882;-70
2021/06/12 03:19:17;;;;;;;17.02;9.65;;;;;;;16.41;65.80;100446.91;1609239;89;21635;-70
2021/06/12 03:21:45;;;;;;;43.13;29.23;;;;;;;16.42;65.94;100448.58;1609517;88;21011;-70
2021/06/12 03:24:12;;;;;;;17.00;10.68;;;;;;;16.42;66.07;100438.64;1610645;87;21091;-70
2021/06/12 03:26:38;;;;;;;15.35;11.28;;;;;;;16.46;66.27;100439.89;1611099;89;21618;-70
2021/06/12 03:29:05;;;;;;;16.82;11.00;;;;;;;16.58;66.43;100437.41;1611614;88;21983;-70
2021/06/12 03:31:31;;;;;;;14.43;10.40;;;;;;;16.69;66.60;100437.30;1610838;88;21099;-70
2021/06/12 03:33:57;;;;;;;16.17;11.38;;;;;;;16.81;66.69;100432.95;1610672;89;21102;-70
2021/06/12 03:36:25;;;;;;;18.57;9.98;;;;;;;17.27;66.88;100430.98;1611163;89;21556;-70
2021/06/12 03:38:51;;;;;;;15.80;10.60;;;;;;;17.75;66.70;100431.92;1584912;89;21050;-70
2021/06/12 03:41:18;;;;;;;16.60;10.20;;;;;;;18.21;66.58;100433.82;1610705;89;21169;-70
2021/06/12 03:43:45;;;;;;;13.60;9.50;;;;;;;18.50;66.21;100422.08;1610981;88;21060;-69
2021/06/12 03:46:15;;;;;;;16.15;9.43;;;;;;;18.53;66.00;100432.47;1611317;87;21027;-70
2021/06/12 03:48:43;;;;;;;27.13;9.53;;;;;;;18.43;65.84;100427.02;1611396;88;21093;-71
2021/06/12 03:51:11;;;;;;;15.43;10.08;;;;;;;18.21;65.81;100427.08;1588731;89;21532;-70
2021/06/12 03:53:49;;;;;;;15.13;10.40;;;;;;;18.03;65.85;100431.03;1609857;89;21076;-70
2021/06/12 03:56:17;;;;;;;16.77;10.03;;;;;;;17.93;65.86;100423.94;1610018;88;21553;-70
2021/06/12 03:58:45;;;;;;;16.20;11.00;;;;;;;17.87;65.81;100426.16;1610789;89;21099;-70
2021/06/12 04:01:15;;;;;;;13.00;9.93;;;;;;;17.81;65.84;100421.09;1610050;88;21095;-70
2021/06/12 04:03:42;;;;;;;16.97;10.18;;;;;;;17.77;65.87;100421.73;1610074;89;21072;-70
2021/06/12 04:06:08;;;;;;;12.13;9.55;;;;;;;17.74;65.95;100421.66;1612200;89;21106;-70
2021/06/12 04:08:35;;;;;;;12.25;8.55;;;;;;;17.74;66.03;100430.27;1609994;88;21024;-70
2021/06/12 04:11:01;;;;;;;15.93;10.25;;;;;;;17.71;66.12;100433.39;1609472;89;21024;-70
2021/06/12 04:13:27;;;;;;;26.55;15.20;;;;;;;17.69;66.22;100435.50;1609544;88;21500;-70
2021/06/12 04:15:53;;;;;;;10.78;9.50;;;;;;;17.75;66.33;100426.53;1609637;89;21572;-70
2021/06/12 04:18:19;;;;;;;16.70;9.85;;;;;;;17.81;66.37;100424.31;1609884;89;21184;-70
2021/06/12 04:20:45;;;;;;;14.58;11.25;;;;;;;17.83;66.43;100421.72;1609950;89;21028;-70
2021/06/12 04:23:12;;;;;;;14.70;10.82;;;;;;;17.91;66.47;100424.66;1610868;89;21028;-70
2021/06/12 04:25:38;;;;;;;19.42;12.23;;;;;;;17.92;66.46;100419.58;1610112;89;21028;-70
2021/06/12 04:28:04;;;;;;;15.45;10.85;;;;;;;18.00;66.46;100419.33;1610784;89;21639;-70
2021/06/12 04:30:30;;;;;;;14.05;10.90;;;;;;;18.08;66.41;100415.03;1610442;89;21153;-70
2021/06/12 04:32:56;;;;;;;14.23;10.43;;;;;;;18.13;66.37;100416.53;1612011;89;21060;-70
2021/06/12 04:35:24;;;;;;;14.40;11.50;;;;;;;18.16;66.31;100422.84;1610187;89;21027;-70
2021/06/12 04:37:50;;;;;;;12.03;10.70;;;;;;;18.16;66.29;100418.79;1612165;89;21086;-70
2021/06/12 04:40:16;;;;;;;14.47;10.40;;;;;;;18.19;66.24;100423.75;1585627;89;21873;-70
2021/06/12 04:42:42;;;;;;;15.93;10.32;;;;;;;18.20;66.15;100420.01;1605034;87;21799;-70
2021/06/12 04:45:09;;;;;;;12.65;8.83;;;;;;;18.27;66.10;100416.73;1596433;89;21080;-70
2021/06/12 04:47:36;;;;;;;9.60;8.40;;;;;;;18.33;66.02;100422.60;1610030;89;21514;-70
2021/06/12 04:50:05;;;;;;;12.53;8.65;;;;;;;18.43;65.92;100423.48;1609795;88;21151;-70
2021/06/12 04:52:31;;;;;;;10.53;9.40;;;;;;;18.48;65.80;100420.41;1609439;89;21556;-70
2021/06/12 04:54:57;;;;;;;10.43;8.65;;;;;;;18.58;65.69;100423.19;1611086;89;21837;-70
2021/06/12 04:57:23;;;;;;;15.25;8.48;;;;;;;18.71;65.59;100420.36;1610717;89;21024;-70
2021/06/12 04:59:49;;;;;;;13.40;9.38;;;;;;;18.83;65.40;100421.26;1609558;89;21489;-71
2021/06/12 05:02:15;;;;;;;13.25;9.40;;;;;;;18.90;65.26;100419.31;1610368;89;21019;-70
2021/06/12 05:04:41;;;;;;;14.05;9.53;;;;;;;19.00;65.07;100420.17;1609934;89;21109;-70
2021/06/12 05:07:07;;;;;;;18.95;11.48;;;;;;;19.05;64.91;100413.55;1610939;89;21126;-70
2021/06/12 05:09:33;;;;;;;17.60;9.20;;;;;;;19.10;64.75;100416.42;1608446;88;21473;-70
2021/06/12 05:11:59;;;;;;;14.15;11.63;;;;;;;19.14;64.64;100407.62;1610471;89;21586;-70
2021/06/12 05:14:25;;;;;;;11.90;8.00;;;;;;;19.23;64.50;100404.92;1611165;88;21075;-70
2021/06/12 05:16:51;;;;;;;12.30;8.60;;;;;;;19.37;64.29;100403.72;1585537;90;21032;-70
2021/06/12 05:19:17;;;;;;;15.60;8.75;;;;;;;19.54;64.08;100401.23;1610706;87;21371;-70
2021/06/12 05:21:45;;;;;;;27.02;9.13;;;;;;;19.67;63.87;100405.63;1609642;88;21464;-70
2021/06/12 05:24:11;;;;;;;16.52;8.38;;;;;;;19.79;63.64;100397.88;1610777;88;21032;-70
2021/06/12 05:26:39;;;;;;;12.10;8.65;;;;;;;19.92;63.43;100395.49;1610033;87;21015;-70
2021/06/12 05:29:05;;;;;;;11.78;8.08;;;;;;;20.15;63.20;100392.87;1610464;89;21548;-71
2021/06/12 05:31:32;;;;;;;10.58;8.68;;;;;;;20.37;62.94;100388.55;1610249;88;21923;-70
2021/06/12 05:33:58;;;;;;;9.90;7.05;;;;;;;20.63;62.71;100389.16;1610260;89;21019;-71
2021/06/12 05:36:25;;;;;;;9.83;8.38;;;;;;;20.80;62.33;100392.80;1609518;89;21075;-71
2021/06/12 05:38:51;;;;;;;10.65;9.08;;;;;;;20.82;61.98;100387.99;1609547;89;21544;-70
2021/06/12 05:41:17;;;;;;;13.65;10.35;;;;;;;20.80;61.75;100384.67;1609974;89;21083;-70
2021/06/12 05:43:43;;;;;;;13.15;11.73;;;;;;;20.88;61.49;100380.25;1611115;89;21928;-71
2021/06/12 05:46:09;;;;;;;13.90;12.40;;;;;;;20.99;61.22;100383.48;1609738;89;21127;-71
2021/06/12 05:48:35;;;;;;;16.85;12.65;;;;;;;21.10;60.95;100377.75;1604030;89;21079;-70
2021/06/12 05:51:01;;;;;;;12.07;10.85;;;;;;;21.30;60.61;100379.02;1609804;89;21072;-71
2021/06/12 05:53:27;;;;;;;13.62;9.00;;;;;;;21.64;60.28;100375.08;1609267;89;21030;-70
2021/06/12 05:55:53;;;;;;;12.33;8.65;;;;;;;21.86;59.92;100370.05;1610322;89;21477;-70
2021/06/12 05:58:19;;;;;;;9.23;8.33;;;;;;;22.05;59.53;100367.98;1608766;89;22259;-70
2021/06/12 06:00:45;;;;;;;10.68;9.58;;;;;;;22.33;59.17;100365.19;1605215;89;21016;-71
2021/06/12 06:03:11;;;;;;;12.18;8.50;;;;;;;22.52;58.77;100359.50;1607201;89;21055;-71
2021/06/12 06:05:38;;;;;;;11.57;8.18;;;;;;;22.66;58.38;100354.00;1602857;89;21099;-70
2021/06/12 06:08:05;;;;;;;10.68;7.72;;;;;;;22.85;57.94;100348.58;1608666;89;21196;-70
2021/06/12 06:10:31;;;;;;;11.63;7.08;;;;;;;22.99;57.52;100352.58;1610171;89;21032;-71
2021/06/12 06:13:03;;;;;;;9.25;6.28;;;;;;;23.02;57.16;100352.06;1605433;89;21130;-71
2021/06/12 06:15:29;;;;;;;8.80;6.50;;;;;;;23.03;56.86;100348.81;1604639;89;21084;-71
2021/06/12 06:17:55;;;;;;;8.43;5.97;;;;;;;23.20;56.63;100350.39;1610656;89;21027;-71
2021/06/12 06:20:21;;;;;;;8.40;7.45;;;;;;;23.37;56.21;100342.97;1608625;89;21580;-71
2021/06/12 06:22:47;;;;;;;9.00;7.15;;;;;;;23.47;55.81;100342.28;1599689;89;21445;-71
2021/06/12 06:25:13;;;;;;;7.33;6.05;;;;;;;23.51;55.56;100337.15;1599656;89;21445;-71
2021/06/12 06:27:39;;;;;;;8.58;6.45;;;;;;;23.45;55.32;100340.91;1599535;89;21209;-71
2021/06/12 06:30:07;;;;;;;7.28;6.47;;;;;;;23.35;55.14;100345.14;1599694;89;21047;-71
2021/06/12 06:32:33;;;;;;;12.00;6.70;;;;;;;23.31;55.00;100346.72;1599725;89;22413;-70
2021/06/12 06:34:59;;;;;;;24.50;7.78;;;;;;;23.27;54.81;100342.03;1599262;89;21023;-71
2021/06/12 06:37:25;;;;;;;10.58;6.60;;;;;;;23.24;54.63;100340.65;1590129;89;20988;-71
2021/06/12 06:39:51;;;;;;;14.18;6.85;;;;;;;23.27;54.46;100340.14;1609982;89;21023;-70
2021/06/12 06:42:17;;;;;;;16.87;6.37;;;;;;;23.20;54.34;100329.98;1610055;89;21114;-71
2021/06/12 06:44:43;;;;;;;6.90;6.15;;;;;;;23.21;54.27;100331.64;1610066;89;21799;-71
2021/06/12 06:47:09;;;;;;;16.62;7.50;;;;;;;23.28;54.17;100330.91;1620740;87;21014;-70
2021/06/12 06:49:35;;;;;;;16.17;6.53;;;;;;;23.28;54.09;100320.55;1610580;89;21008;-70
2021/06/12 06:52:04;;;;;;;7.15;5.95;;;;;;;23.24;54.09;100327.05;1610037;87;21083;-70
2021/06/12 06:54:31;;;;;;;10.60;6.30;;;;;;;23.33;54.10;100328.22;1608463;89;21043;-70
2021/06/12 06:56:57;;;;;;;10.85;6.03;;;;;;;23.55;54.09;100328.76;1611715;89;21701;-71
2021/06/12 06:59:23;;;;;;;13.22;7.12;;;;;;;23.70;53.94;100330.28;1610247;89;21066;-71
2021/06/12 07:01:49;;;;;;;13.45;7.28;;;;;;;23.85;53.89;100327.71;1611342;89;21043;-70
2021/06/12 07:04:15;;;;;;;12.25;6.20;;;;;;;23.95;53.74;100321.52;1612076;89;21034;-70
2021/06/12 07:06:41;;;;;;;7.60;6.37;;;;;;;23.95;53.61;100327.80;1610876;89;21484;-71
2021/06/12 07:09:07;;;;;;;7.12;6.30;;;;;;;23.88;53.54;100323.93;1610779;89;22470;-71
2021/06/12 07:11:34;;;;;;;10.63;6.37;;;;;;;23.87;53.36;100320.91;1610385;89;21504;-71
2021/06/12 07:14:00;;;;;;;20.52;7.30;;;;;;;24.01;53.29;100329.48;1611712;89;21098;-71
2021/06/12 07:16:26;;;;;;;7.85;6.47;;;;;;;24.02;53.02;100316.14;1610444;89;21031;-71
2021/06/12 07:18:52;;;;;;;12.23;8.23;;;;;;;24.14;52.94;100320.89;1611301;89;21055;-71
2021/06/12 07:21:18;;;;;;;14.13;7.22;;;;;;;24.12;52.81;100319.48;1609548;89;21786;-71
2021/06/12 07:23:44;;;;;;;12.23;7.12;;;;;;;24.08;52.76;100317.81;1610655;89;21411;-71
2021/06/12 07:26:10;;;;;;;13.08;7.80;;;;;;;23.95;52.68;100318.80;1609701;89;20935;-71
2021/06/12 07:28:36;;;;;;;11.45;7.35;;;;;;;23.97;52.76;100314.73;1609638;88;21023;-71
2021/06/12 07:31:02;;;;;;;14.87;8.23;;;;;;;24.06;52.84;100309.63;1609419;88;21071;-71
2021/06/12 07:33:28;;;;;;;12.65;7.78;;;;;;;24.17;52.78;100308.67;1609603;88;22411;-71
2021/06/12 07:35:54;;;;;;;12.73;7.72;;;;;;;24.24;52.72;100314.14;1609085;88;21011;-71
2021/06/12 07:38:20;;;;;;;16.10;7.83;;;;;;;24.32;52.70;100315.03;1609410;89;21031;-71
2021/06/12 07:40:46;;;;;;;9.93;8.00;;;;;;;24.35;52.55;100310.41;1609331;89;21103;-71
2021/06/12 07:43:18;;;;;;;10.65;7.92;;;;;;;24.22;52.38;100303.23;1609531;89;21052;-71
2021/06/12 07:45:40;;;;;;;8.53;7.20;;;;;;;24.19;52.36;100301.03;1609557;88;21710;-71
2021/06/12 07:48:07;;;;;;;8.63;7.72;;;;;;;24.32;52.37;100304.13;1603337;89;21022;-71
2021/06/12 07:50:33;;;;;;;9.00;7.47;;;;;;;24.49;52.29;100294.98;1603552;89;21028;-71
2021/06/12 07:52:59;;;;;;;8.80;7.17;;;;;;;24.58;52.10;100294.75;1595656;89;21023;-71
2021/06/12 07:55:25;;;;;;;10.78;7.55;;;;;;;24.62;52.05;100298.05;1592872;89;21058;-71
2021/06/12 07:57:51;;;;;;;9.33;6.95;;;;;;;24.63;51.89;100296.95;1596057;89;21950;-70
2021/06/12 08:00:18;;;;;;;10.15;7.10;;;;;;;24.59;51.88;100299.13;1600660;89;21025;-71
2021/06/12 08:02:44;;;;;;;9.30;8.03;;;;;;;24.61;51.74;100303.22;1610629;88;21011;-71
2021/06/12 08:05:11;;;;;;;11.93;6.75;;;;;;;24.70;51.61;100297.53;1611745;89;21031;-71
2021/06/12 08:07:37;;;;;;;7.33;6.60;;;;;;;24.71;51.51;100298.36;1610249;89;21102;-71
2021/06/12 08:10:04;;;;;;;7.55;6.92;;;;;;;24.86;51.42;100290.28;1610670;89;22852;-71
2021/06/12 08:12:31;;;;;;;10.38;6.92;;;;;;;24.96;51.17;100282.14;1610199;89;20991;-71
2021/06/12 08:14:57;;;;;;;10.72;6.58;;;;;;;25.01;51.11;100288.98;1610254;89;21035;-71
2021/06/12 08:17:23;;;;;;;7.42;6.22;;;;;;;25.17;51.07;100288.48;1611508;89;21079;-71
2021/06/12 08:19:49;;;;;;;7.97;6.60;;;;;;;25.18;50.90;100287.40;1607834;89;21469;-71
2021/06/12 08:22:15;;;;;;;8.90;6.83;;;;;;;25.06;50.80;100296.36;1611508;89;21844;-71
2021/06/12 08:24:41;;;;;;;7.70;5.90;;;;;;;24.87;50.76;100290.57;1610880;89;21019;-71
2021/06/12 08:27:07;;;;;;;9.75;5.83;;;;;;;24.66;50.83;100288.27;1611855;89;21516;-71
2021/06/12 08:29:34;;;;;;;6.58;5.97;;;;;;;24.57;50.88;100299.91;1611310;89;21442;-71
2021/06/12 08:32:00;;;;;;;12.43;6.25;;;;;;;24.51;50.86;100295.52;1610033;89;21456;-71
2021/06/12 08:34:26;;;;;;;14.65;6.30;;;;;;;24.50;50.81;100291.14;1611681;89;22486;-71
2021/06/12 08:36:52;;;;;;;13.65;5.78;;;;;;;24.55;50.77;100302.92;1609853;88;20982;-71
2021/06/12 08:39:18;;;;;;;28.80;5.20;;;;;;;24.47;50.51;100312.95;1609206;89;21059;-71
2021/06/12 08:41:44;;;;;;;7.05;5.03;;;;;;;24.44;50.41;100302.58;1609417;88;21063;-71
2021/06/12 08:44:11;;;;;;;12.30;4.95;;;;;;;24.41;50.36;100305.83;1609222;88;21039;-71
2021/06/12 08:46:38;;;;;;;5.95;4.83;;;;;;;24.45;50.29;100310.22;1609630;89;21964;-71
2021/06/12 08:49:04;;;;;;;76.92;7.90;;;;;;;24.42;50.13;100309.38;1603490;89;21338;-71
2021/06/12 08:51:31;;;;;;;11.25;5.80;;;;;;;24.41;50.06;100296.83;1616091;88;21051;-71
2021/06/12 08:53:57;;;;;;;20.50;5.60;;;;;;;24.44;50.03;100293.03;1615822;88;21115;-71
2021/06/12 08:56:23;;;;;;;18.85;6.22;;;;;;;24.48;50.01;100298.78;1586154;90;21087;-71
2021/06/12 08:58:49;;;;;;;8.48;5.35;;;;;;;24.48;49.94;100293.33;1602771;89;21632;-71
2021/06/12 09:01:15;;;;;;;5.30;4.80;;;;;;;24.45;49.90;100291.13;1615828;88;21018;-70
2021/06/12 09:03:43;;;;;;;14.05;5.50;;;;;;;24.56;49.93;100299.09;1615991;88;21031;-71
2021/06/12 09:06:10;;;;;;;21.48;6.35;;;;;;;24.66;49.93;100295.08;1586573;90;21044;-70
2021/06/12 09:08:40;;;;;;;10.72;5.17;;;;;;;24.62;49.68;100288.51;1602905;89;20984;-71
2021/06/12 09:11:08;;;;;;;25.88;5.60;;;;;;;24.57;49.61;100289.00;1602620;89;21636;-71
2021/06/12 09:13:53;;;;;;;11.10;5.22;;;;;;;24.55;49.44;100292.02;1615525;88;21511;-71
2021/06/12 09:16:41;;;;;;;7.20;4.58;;;;;;;24.50;49.39;100296.60;1601029;89;21032;-71
2021/06/12 09:19:15;;;;;;;4.92;4.30;;;;;;;24.54;49.44;100292.27;1600420;89;21031;-71
2021/06/12 09:21:46;;;;;;;7.00;5.05;;;;;;;24.52;49.44;100294.45;1593032;89;21550;-71
2021/06/12 09:24:49;;;;;;;18.73;5.12;;;;;;;24.48;49.41;100290.60;1593546;89;21714;-70
2021/06/12 09:27:16;;;;;;;14.28;5.40;;;;;;;24.48;49.47;100296.05;1615436;88;21095;-71
2021/06/12 09:29:46;;;;;;;8.83;5.05;;;;;;;24.44;49.52;100301.21;1586918;90;21084;-70
2021/06/12 09:32:25;;;;;;;11.60;5.05;;;;;;;24.28;49.53;100300.28;1586915;90;21029;-70
2021/06/12 09:34:57;;;;;;;10.10;5.03;;;;;;;24.24;49.63;100299.16;1586461;90;21077;-70
2021/06/12 09:37:29;;;;;;;12.93;5.35;;;;;;;24.16;49.68;100298.84;1550864;90;22473;-71
2021/06/12 09:40:14;;;;;;;7.75;5.50;;;;;;;24.08;49.78;100294.66;1602771;89;21031;-70
2021/06/12 09:42:56;;;;;;;9.25;4.60;;;;;;;24.00;49.87;100302.48;1595520;88;21101;-70
2021/06/12 09:45:31;;;;;;;8.73;5.20;;;;;;;23.86;50.00;100304.81;1616055;88;21071;-70
2021/06/12 09:48:12;;;;;;;8.98;5.53;;;;;;;23.73;50.14;100299.80;1621628;86;21061;-70
2021/06/12 09:50:38;;;;;;;10.80;5.33;;;;;;;23.55;50.25;100305.61;1615678;87;21530;-70
2021/06/12 09:53:22;;;;;;;14.85;4.92;;;;;;;23.38;50.42;100296.99;1610295;87;20988;-70
2021/06/12 09:55:48;;;;;;;7.15;5.50;;;;;;;23.19;50.61;100307.92;1598950;89;21074;-70
2021/06/12 09:58:14;;;;;;;16.05;5.42;;;;;;;23.12;50.85;100309.19;1607968;87;21183;-70
2021/06/12 10:00:45;;;;;;;12.78;5.97;;;;;;;23.02;50.97;100307.18;1641209;87;21094;-70
2021/06/12 10:03:26;;;;;;;8.48;5.10;;;;;;;22.90;51.10;100309.22;1611268;88;21242;-70
2021/06/12 10:06:21;;;;;;;;;;;;;;;22.78;51.28;100312.58;1614291;88;21042;-70
2021/06/12 10:08:49;;;;;;;9.63;5.85;;;;;;;22.68;51.47;100312.45;1612376;88;21018;-70
2021/06/12 10:11:19;;;;;;;8.48;5.05;;;;;;;22.60;51.64;100311.48;1610946;88;21041;-70
2021/06/12 10:13:46;;;;;;;41.05;7.92;;;;;;;22.62;51.85;100314.79;1610847;88;21120;-70
2021/06/12 10:16:13;;;;;;;9.53;5.17;;;;;;;22.61;52.09;100315.86;1611832;88;21815;-70
2021/06/12 10:18:40;;;;;;;10.65;5.50;;;;;;;22.65;52.27;100309.67;1612148;88;21031;-70
2021/06/12 10:21:12;;;;;;;7.05;5.03;;;;;;;22.68;52.46;100308.37;1597287;89;21028;-70
2021/06/12 10:23:39;;;;;;;23.87;5.30;;;;;;;22.68;52.52;100306.48;1596500;89;21055;-70
2021/06/12 10:26:09;;;;;;;23.62;5.85;;;;;;;22.62;52.63;100307.99;1598075;89;21091;-70
2021/06/12 10:28:35;;;;;;;6.33;4.83;;;;;;;22.54;52.74;100312.49;1600095;87;21216;-70
2021/06/12 10:31:07;;;;;;;15.32;5.50;;;;;;;22.44;52.88;100317.78;1640471;87;21577;-70
2021/06/12 10:33:33;;;;;;;7.90;4.85;;;;;;;22.36;53.10;100310.88;1642576;85;21013;-70
2021/06/12 10:36:20;;;;;;;7.65;4.60;;;;;;;22.34;53.28;100313.03;1638806;86;21021;-70
2021/06/12 10:38:46;;;;;;;9.18;4.90;;;;;;;22.34;53.50;100302.95;1639431;87;21574;-70
2021/06/12 10:41:34;;;;;;;6.58;4.42;;;;;;;22.31;53.77;100299.38;1638728;87;21891;-70
2021/06/12 10:44:03;;;;;;;8.48;4.28;;;;;;;22.15;54.08;100304.84;1638986;87;21096;-70
2021/06/12 10:46:33;;;;;;;8.10;5.40;;;;;;;21.98;54.49;100306.20;1646060;85;21087;-70
2021/06/12 10:49:04;;;;;;;6.55;4.58;;;;;;;21.85;54.83;100302.41;1610922;87;21098;-70
2021/06/12 10:51:41;;;;;;;7.67;5.35;;;;;;;21.84;55.12;100295.34;1610521;88;21164;-70
2021/06/12 10:54:26;;;;;;;7.45;5.20;;;;;;;21.86;55.40;100304.06;1609672;88;21258;-70
2021/06/12 10:56:59;;;;;;;17.25;5.83;;;;;;;21.79;55.82;100296.61;1609894;88;21555;-70
2021/06/12 10:59:44;;;;;;;15.48;5.55;;;;;;;21.69;56.22;100301.87;1609892;88;21688;-70
2021/06/12 11:02:43;;;;;;;19.98;5.80;;;;;;;21.64;56.60;100293.65;1609368;88;21102;-70
2021/06/12 11:05:29;;;;;;;17.57;6.42;;;;;;;21.62;56.90;100288.98;1610923;88;21069;-70
2021/06/12 11:08:14;;;;;;;8.90;5.30;;;;;;;21.66;57.18;100286.07;1613059;88;21157;-70
2021/06/12 11:10:40;;;;;;;9.18;4.85;;;;;;;21.75;57.42;100287.30;1613267;87;21068;-70
2021/06/12 11:13:20;;;;;;;7.85;5.30;;;;;;;21.82;57.59;100279.82;1588713;88;21675;-70
2021/06/12 11:15:46;;;;;;;9.60;5.35;;;;;;;21.90;57.75;100276.73;1640247;86;21030;-70
2021/06/12 11:18:21;;;;;;;16.60;14.40;;;;;;;21.99;57.88;100272.52;1638504;86;21138;-70
2021/06/12 11:21:04;;;;;;;9.70;6.42;;;;;;;21.97;57.95;100269.25;1610277;88;22091;-70
2021/06/12 11:23:54;;;;;;;9.58;5.28;;;;;;;21.98;58.04;100268.72;1610020;87;21098;-70
2021/06/12 11:26:19;;;;;;;8.48;4.60;;;;;;;21.95;58.12;100274.12;1610677;88;21109;-70